createdAt,value
2018-04-23T00:00:37.061Z,15.70
2018-04-23T00:03:03.361Z,15.70
2018-04-23T00:05:29.665Z,15.70
2018-04-23T00:07:55.936Z,15.70
2018-04-23T00:10:22.253Z,15.80
2018-04-23T00:12:49.577Z,15.90
2018-04-23T00:15:16.617Z,16.10
2018-04-23T00:17:43.660Z,16.00
2018-04-23T00:20:10.721Z,16.00
2018-04-23T00:22:37.765Z,16.00
2018-04-23T00:25:04.816Z,15.90
2018-04-23T00:27:31.831Z,15.70
2018-04-23T00:29:58.133Z,15.60
2018-04-23T00:32:24.424Z,15.70
2018-04-23T00:34:50.693Z,15.70
2018-04-23T00:37:18.027Z,15.70
2018-04-23T00:39:44.297Z,15.70
2018-04-23T00:42:10.613Z,15.70
2018-04-23T00:44:36.896Z,15.80
2018-04-23T00:47:03.193Z,15.90
2018-04-23T00:49:29.519Z,15.80
2018-04-23T00:51:55.810Z,15.70
2018-04-23T00:54:22.115Z,15.70
2018-04-23T00:56:48.420Z,15.60
2018-04-23T00:59:15.477Z,15.40
2018-04-23T01:01:42.491Z,15.30
2018-04-23T01:04:08.776Z,15.30
2018-04-23T01:06:35.093Z,15.30
2018-04-23T01:09:02.173Z,15.00
2018-04-23T01:11:28.469Z,15.00
2018-04-23T01:13:55.489Z,14.90
2018-04-23T01:16:21.769Z,14.90
2018-04-23T01:18:48.076Z,14.70
2018-04-23T01:21:14.393Z,14.70
2018-04-23T01:23:41.440Z,14.60
2018-04-23T01:26:08.457Z,14.50
2018-04-23T01:28:34.894Z,14.40
2018-04-23T01:31:01.221Z,14.40
2018-04-23T01:33:27.562Z,14.30
2018-04-23T01:35:53.933Z,14.30
2018-04-23T01:38:22.041Z,14.20
2018-04-23T01:40:48.373Z,14.10
2018-04-23T01:43:14.904Z,14.20
2018-04-23T01:45:41.252Z,14.10
2018-04-23T01:48:07.571Z,14.10
2018-04-23T01:50:33.892Z,14.10
2018-04-23T01:53:00.210Z,14.20
2018-04-23T01:55:26.525Z,14.20
2018-04-23T01:57:52.848Z,14.10
2018-04-23T02:00:19.922Z,14.00
2018-04-23T02:02:46.273Z,14.00
2018-04-23T02:05:12.600Z,13.90
2018-04-23T02:07:38.904Z,13.80
2018-04-23T02:10:05.257Z,13.80
2018-04-23T02:12:31.585Z,13.80
2018-04-23T02:14:58.909Z,13.70
2018-04-23T02:17:26.220Z,13.60
2018-04-23T02:19:52.541Z,13.60
2018-04-23T02:22:18.889Z,13.60
2018-04-23T02:24:45.257Z,13.50
2018-04-23T02:27:12.324Z,13.40
2018-04-23T02:29:38.675Z,13.40
2018-04-23T02:32:05.625Z,13.50
2018-04-23T02:34:32.469Z,13.50
2018-04-23T02:36:58.809Z,13.40
2018-04-23T02:39:25.145Z,13.30
2018-04-23T02:41:51.477Z,13.30
2018-04-23T02:44:17.788Z,13.30
2018-04-23T02:46:45.149Z,13.30
2018-04-23T02:49:11.512Z,13.20
2018-04-23T02:51:38.612Z,13.30
2018-04-23T02:54:04.945Z,13.30
2018-04-23T02:56:31.289Z,13.30
2018-04-23T02:58:57.653Z,13.30
2018-04-23T03:01:24.734Z,13.30
2018-04-23T03:03:51.088Z,13.30
2018-04-23T03:06:17.425Z,13.20
2018-04-23T03:08:43.767Z,13.20
2018-04-23T03:11:10.138Z,13.20
2018-04-23T03:13:37.208Z,13.10
2018-04-23T03:16:04.622Z,13.10
2018-04-23T03:18:30.969Z,13.00
2018-04-23T03:20:58.053Z,13.00
2018-04-23T03:23:24.396Z,12.90
2018-04-23T03:25:50.761Z,13.00
2018-04-23T03:28:17.082Z,13.10
2018-04-23T03:30:44.176Z,13.10
2018-04-23T03:33:10.527Z,13.10
2018-04-23T03:35:36.836Z,13.10
2018-04-23T03:38:03.160Z,13.20
2018-04-23T03:40:29.475Z,13.20
2018-04-23T03:42:56.537Z,13.20
2018-04-23T03:45:22.885Z,13.10
2018-04-23T03:47:49.208Z,13.20
2018-04-23T03:50:15.537Z,13.20
2018-04-23T03:52:41.864Z,13.90
2018-04-23T03:55:08.214Z,13.30
2018-04-23T03:57:34.536Z,13.50
2018-04-23T04:00:00.870Z,13.60
2018-04-23T04:02:27.221Z,13.60
2018-04-23T04:04:53.548Z,13.60
2018-04-23T04:07:19.907Z,13.60
2018-04-23T04:09:46.227Z,13.60
2018-04-23T04:12:24.780Z,13.50
2018-04-23T04:15:04.204Z,13.40
2018-04-23T04:17:38.597Z,13.30
2018-04-23T04:20:06.477Z,13.30
2018-04-23T04:22:33.321Z,13.30
2018-04-23T04:24:59.661Z,13.20
2018-04-23T04:27:26.956Z,13.30
2018-04-23T04:29:54.310Z,13.30
2018-04-23T04:32:20.628Z,13.20
2018-04-23T04:34:47.685Z,13.20
2018-04-23T04:37:14.034Z,13.20
2018-04-23T04:39:40.373Z,13.30
2018-04-23T04:42:06.689Z,13.30
2018-04-23T04:44:33.058Z,13.40
2018-04-23T04:46:59.385Z,13.40
2018-04-23T04:49:25.698Z,13.40
2018-04-23T04:51:52.044Z,13.50
2018-04-23T04:54:18.365Z,13.60
2018-04-23T04:56:44.833Z,13.60
2018-04-23T04:59:11.162Z,13.60
2018-04-23T05:01:37.489Z,13.70
2018-04-23T05:04:03.840Z,13.80
2018-04-23T05:06:30.917Z,13.80
2018-04-23T05:08:57.233Z,13.80
2018-04-23T05:11:24.284Z,13.80
2018-04-23T05:13:51.347Z,14.00
2018-04-23T05:16:17.998Z,14.00
2018-04-23T05:18:44.321Z,14.00
2018-04-23T05:21:10.632Z,14.00
2018-04-23T05:23:37.032Z,14.20
2018-04-23T05:26:03.357Z,14.30
2018-04-23T05:28:29.681Z,14.30
2018-04-23T05:30:55.994Z,14.40
2018-04-23T05:33:22.324Z,14.50
2018-04-23T05:35:48.645Z,14.80
2018-04-23T05:38:15.013Z,15.00
2018-04-23T05:40:42.137Z,15.30
2018-04-23T05:43:08.535Z,15.30
2018-04-23T05:45:34.880Z,15.50
2018-04-23T05:48:01.221Z,15.70
2018-04-23T05:50:28.536Z,15.70
2018-04-23T05:52:55.593Z,16.00
2018-04-23T05:55:22.653Z,16.20
2018-04-23T05:57:49.856Z,16.30
2018-04-23T06:00:16.168Z,16.30
2018-04-23T06:02:42.464Z,16.60
2018-04-23T06:05:08.897Z,16.80
2018-04-23T06:07:35.225Z,17.00
2018-04-23T06:10:01.542Z,17.30
2018-04-23T06:12:27.914Z,17.30
2018-04-23T06:14:54.240Z,17.30
2018-04-23T06:17:20.592Z,17.40
2018-04-23T06:19:46.992Z,17.50
2018-04-23T06:22:13.273Z,17.70
2018-04-23T06:24:39.604Z,17.80
2018-04-23T06:27:05.910Z,17.90
2018-04-23T06:29:32.222Z,18.10
2018-04-23T06:31:58.553Z,18.30
2018-04-23T06:34:24.893Z,18.50
2018-04-23T06:36:51.217Z,18.60
2018-04-23T06:39:17.528Z,18.80
2018-04-23T06:41:44.574Z,19.20
2018-04-23T06:44:10.889Z,19.20
2018-04-23T06:46:37.940Z,19.50
2018-04-23T06:49:05.001Z,19.60
2018-04-23T06:51:31.320Z,19.60
2018-04-23T06:53:57.635Z,19.90
2018-04-23T06:56:24.809Z,20.10
2018-04-23T06:58:51.117Z,20.00
2018-04-23T07:01:19.194Z,20.50
2018-04-23T07:03:46.295Z,20.70
2018-04-23T07:06:12.641Z,20.70
2018-04-23T07:08:38.972Z,20.90
2018-04-23T07:11:05.285Z,20.90
2018-04-23T07:13:31.615Z,20.90
2018-04-23T07:15:57.931Z,21.00
2018-04-23T07:18:24.266Z,21.10
2018-04-23T07:20:50.578Z,21.10
2018-04-23T07:23:16.940Z,21.20
2018-04-23T07:25:43.276Z,21.10
2018-04-23T07:28:09.590Z,21.20
2018-04-23T07:30:35.901Z,21.30
2018-04-23T07:33:02.231Z,21.20
2018-04-23T07:35:28.556Z,21.20
2018-04-23T07:37:54.999Z,21.30
2018-04-23T07:40:21.309Z,21.30
2018-04-23T07:42:48.365Z,21.00
2018-04-23T07:45:14.739Z,21.00
2018-04-23T07:47:41.061Z,20.80
2018-04-23T07:50:07.381Z,20.80
2018-04-23T07:52:33.697Z,21.00
2018-04-23T07:55:00.013Z,21.10
2018-04-23T07:57:27.081Z,21.40
2018-04-23T07:59:53.447Z,21.30
2018-04-23T08:02:19.758Z,21.60
2018-04-23T08:04:46.092Z,21.70
2018-04-23T08:07:12.424Z,22.00
2018-04-23T08:09:38.788Z,22.30
2018-04-23T08:12:06.105Z,22.40
2018-04-23T08:14:32.418Z,22.80
2018-04-23T08:16:58.724Z,23.20
2018-04-23T08:19:25.807Z,23.20
2018-04-23T08:21:52.109Z,23.20
2018-04-23T08:24:19.157Z,23.40
2018-04-23T08:26:47.255Z,23.70
2018-04-23T08:29:13.557Z,23.70
2018-04-23T08:31:40.612Z,24.20
2018-04-23T08:34:06.968Z,24.20
2018-04-23T08:36:33.281Z,23.90
2018-04-23T08:38:59.612Z,23.80
2018-04-23T08:41:26.593Z,24.00
2018-04-23T08:43:52.896Z,24.30
2018-04-23T08:46:19.277Z,24.50
2018-04-23T08:48:45.592Z,24.60
2018-04-23T08:51:11.914Z,24.90
2018-04-23T08:53:38.231Z,24.70
2018-04-23T08:56:04.537Z,24.70
2018-04-23T08:58:31.601Z,24.70
2018-04-23T09:00:57.921Z,24.70
2018-04-23T09:03:24.965Z,25.10
2018-04-23T09:05:52.025Z,25.10
2018-04-23T09:08:18.324Z,25.10
2018-04-23T09:10:45.384Z,24.00
2018-04-23T09:13:12.448Z,23.90
2018-04-23T09:15:38.764Z,23.80
2018-04-23T09:18:06.104Z,24.20
2018-04-23T09:20:33.177Z,24.30
2018-04-23T09:22:59.484Z,24.30
2018-04-23T09:25:26.536Z,24.20
2018-04-23T09:27:53.585Z,24.20
2018-04-23T09:30:20.641Z,24.20
2018-04-23T09:32:47.685Z,24.30
2018-04-23T09:35:14.745Z,24.40
2018-04-23T09:37:41.073Z,24.40
2018-04-23T09:40:07.389Z,24.70
2018-04-23T09:42:34.453Z,24.90
2018-04-23T09:45:00.798Z,24.80
2018-04-23T09:47:27.146Z,25.00
2018-04-23T09:49:53.468Z,25.10
2018-04-23T09:52:19.781Z,25.20
2018-04-23T09:54:46.097Z,25.10
2018-04-23T09:57:13.169Z,25.00
2018-04-23T09:59:39.489Z,25.00
2018-04-23T10:02:05.804Z,24.90
2018-04-23T10:04:32.870Z,25.00
2018-04-23T10:06:59.197Z,25.00
2018-04-23T10:09:25.551Z,25.20
2018-04-23T10:11:53.104Z,25.40
2018-04-23T10:14:19.411Z,25.10
2018-04-23T10:16:46.458Z,24.50
2018-04-23T10:19:13.548Z,24.30
2018-04-23T10:21:39.904Z,24.30
2018-04-23T10:24:06.244Z,24.10
2018-04-23T10:26:32.586Z,24.00
2018-04-23T10:28:59.632Z,24.40
2018-04-23T10:31:26.741Z,24.60
2018-04-23T10:33:53.029Z,24.50
2018-04-23T10:36:20.088Z,24.20
2018-04-23T10:38:46.416Z,24.20
2018-04-23T10:41:12.741Z,24.20
2018-04-23T10:43:39.060Z,24.30
2018-04-23T10:46:06.121Z,24.20
2018-04-23T10:48:32.428Z,24.10
2018-04-23T10:51:00.535Z,24.40
2018-04-23T10:53:26.889Z,24.30
2018-04-23T10:55:53.207Z,24.30
2018-04-23T10:58:20.569Z,24.20
2018-04-23T11:00:46.897Z,24.30
2018-04-23T11:03:13.229Z,24.50
2018-04-23T11:05:40.565Z,24.40
2018-04-23T11:08:07.873Z,24.60
2018-04-23T11:10:34.198Z,25.00
2018-04-23T11:13:00.515Z,25.10
2018-04-23T11:15:26.848Z,25.30
2018-04-23T11:17:54.661Z,25.70
2018-04-23T11:20:20.985Z,25.70
2018-04-23T11:22:48.032Z,25.80
2018-04-23T11:25:15.097Z,25.70
2018-04-23T11:27:41.409Z,25.60
2018-04-23T11:30:08.477Z,26.00
2018-04-23T11:32:34.797Z,26.00
2018-04-23T11:35:01.129Z,26.00
2018-04-23T11:37:27.453Z,25.70
2018-04-23T11:39:54.500Z,25.50
2018-04-23T11:42:21.561Z,25.40
2018-04-23T11:44:47.882Z,25.40
2018-04-23T11:47:14.245Z,25.50
2018-04-23T11:49:40.555Z,25.50
2018-04-23T11:52:06.887Z,25.60
2018-04-23T11:54:33.203Z,25.80
2018-04-23T11:57:00.245Z,25.50
2018-04-23T11:59:27.324Z,25.50
2018-04-23T12:01:53.662Z,25.50
2018-04-23T12:04:19.994Z,25.70
2018-04-23T12:06:46.331Z,25.60
2018-04-23T12:09:12.674Z,25.40
2018-04-23T12:11:39.008Z,25.40
2018-04-23T12:14:05.344Z,25.50
2018-04-23T12:16:32.669Z,25.80
2018-04-23T12:18:59.994Z,25.50
2018-04-23T12:21:26.326Z,25.40
2018-04-23T12:23:52.664Z,25.50
2018-04-23T12:26:18.977Z,25.60
2018-04-23T12:28:46.029Z,26.00
2018-04-23T12:31:12.362Z,25.90
2018-04-23T12:33:38.686Z,26.00
2018-04-23T12:36:05.740Z,26.60
2018-04-23T12:38:32.057Z,26.50
2018-04-23T12:40:59.121Z,27.80
2018-04-23T12:43:25.456Z,27.80
2018-04-23T12:45:51.827Z,27.90
2018-04-23T12:48:18.100Z,27.80
2018-04-23T12:50:45.156Z,28.20
2018-04-23T12:53:11.472Z,28.10
2018-04-23T12:55:38.536Z,28.70
2018-04-23T12:58:04.873Z,28.70
2018-04-23T13:00:31.206Z,28.90
2018-04-23T13:02:57.548Z,28.30
2018-04-23T13:05:23.857Z,27.90
2018-04-23T13:07:50.171Z,27.60
2018-04-23T13:10:17.245Z,27.60
2018-04-23T13:12:43.626Z,27.60
2018-04-23T13:15:09.931Z,27.60
2018-04-23T13:17:36.255Z,27.30
2018-04-23T13:20:02.597Z,27.70
2018-04-23T13:22:28.917Z,28.00
2018-04-23T13:24:55.250Z,28.10
2018-04-23T13:27:21.565Z,28.50
2018-04-23T13:29:47.877Z,28.90
2018-04-23T13:32:14.951Z,28.00
2018-04-23T13:34:41.278Z,28.00
2018-04-23T13:37:07.594Z,28.20
2018-04-23T13:39:33.892Z,28.90
2018-04-23T13:42:00.234Z,29.40
2018-04-23T13:44:27.289Z,30.60
2018-04-23T13:46:54.336Z,30.10
2018-04-23T13:49:21.416Z,30.20
2018-04-23T13:51:47.716Z,30.10
2018-04-23T13:54:14.789Z,29.80
2018-04-23T13:56:41.145Z,29.80
2018-04-23T13:59:07.470Z,29.30
2018-04-23T14:01:33.812Z,28.80
2018-04-23T14:04:00.177Z,28.70
2018-04-23T14:06:27.229Z,27.50
2018-04-23T14:08:54.275Z,26.70
2018-04-23T14:11:21.416Z,26.50
2018-04-23T14:13:48.501Z,26.30
2018-04-23T14:16:14.829Z,26.30
2018-04-23T14:18:41.143Z,26.20
2018-04-23T14:21:08.212Z,26.10
2018-04-23T14:23:34.545Z,26.10
2018-04-23T14:26:00.892Z,26.00
2018-04-23T14:28:27.216Z,25.80
2018-04-23T14:30:53.540Z,25.90
2018-04-23T14:33:19.847Z,26.10
2018-04-23T14:35:46.932Z,25.30
2018-04-23T14:38:13.265Z,25.20
2018-04-23T14:40:39.601Z,25.10
2018-04-23T14:43:05.918Z,25.40
2018-04-23T14:45:32.248Z,25.60
2018-04-23T14:47:59.600Z,25.60
2018-04-23T14:50:25.953Z,25.50
2018-04-23T14:52:52.273Z,24.90
2018-04-23T14:55:18.605Z,24.50
2018-04-23T14:57:44.961Z,24.50
2018-04-23T15:00:11.276Z,23.90
2018-04-23T15:02:37.601Z,23.60
2018-04-23T15:05:04.044Z,23.90
2018-04-23T15:07:30.356Z,24.10
2018-04-23T15:09:56.672Z,23.50
2018-04-23T15:12:22.984Z,23.50
2018-04-23T15:14:49.311Z,24.40
2018-04-23T15:17:15.613Z,25.20
2018-04-23T15:19:42.665Z,24.60
2018-04-23T15:22:09.765Z,23.60
2018-04-23T15:24:37.101Z,23.50
2018-04-23T15:27:03.433Z,23.00
2018-04-23T15:29:29.750Z,22.60
2018-04-23T15:31:56.094Z,23.60
2018-04-23T15:34:23.253Z,25.10
2018-04-23T15:36:49.829Z,25.00
2018-04-23T15:39:16.158Z,25.50
2018-04-23T15:41:42.753Z,26.20
2018-04-23T15:44:09.126Z,27.30
2018-04-23T15:46:35.442Z,27.90
2018-04-23T15:49:01.773Z,27.70
2018-04-23T15:51:28.110Z,27.20
2018-04-23T15:53:54.432Z,26.80
2018-04-23T15:56:20.752Z,26.60
2018-04-23T15:58:47.081Z,26.10
2018-04-23T16:01:13.433Z,26.00
2018-04-23T16:03:39.741Z,25.50
2018-04-23T16:06:06.090Z,25.50
2018-04-23T16:08:32.442Z,25.90
2018-04-23T16:10:58.758Z,26.20
2018-04-23T16:13:25.085Z,26.00
2018-04-23T16:15:51.444Z,25.70
2018-04-23T16:18:18.507Z,23.70
2018-04-23T16:20:45.579Z,23.10
2018-04-23T16:23:11.884Z,23.00
2018-04-23T16:25:38.937Z,23.30
2018-04-23T16:28:05.301Z,23.30
2018-04-23T16:30:32.224Z,23.70
2018-04-23T16:32:58.544Z,24.00
2018-04-23T16:35:24.877Z,24.10
2018-04-23T16:37:51.193Z,23.90
2018-04-23T16:40:18.274Z,23.40
2018-04-23T16:42:44.589Z,23.30
2018-04-23T16:45:10.903Z,23.30
2018-04-23T16:47:37.966Z,22.90
2018-04-23T16:50:04.304Z,22.90
2018-04-23T16:52:31.378Z,22.40
2018-04-23T16:54:59.438Z,22.60
2018-04-23T16:57:25.753Z,22.00
2018-04-23T16:59:52.829Z,22.50
2018-04-23T17:02:20.148Z,21.60
2018-04-23T17:04:46.456Z,21.20
2018-04-23T17:07:13.533Z,19.80
2018-04-23T17:09:39.849Z,19.70
2018-04-23T17:12:06.249Z,19.50
2018-04-23T17:14:33.333Z,18.80
2018-04-23T17:16:59.661Z,18.70
2018-04-23T17:19:26.016Z,18.70
2018-04-23T17:21:52.356Z,18.50
2018-04-23T17:24:18.691Z,18.40
2018-04-23T17:26:45.067Z,18.20
2018-04-23T17:29:12.157Z,18.10
2018-04-23T17:31:38.524Z,18.10
2018-04-23T17:34:04.860Z,18.10
2018-04-23T17:36:31.957Z,17.90
2018-04-23T17:38:58.277Z,17.80
2018-04-23T17:41:24.584Z,17.80
2018-04-23T17:43:51.648Z,17.60
2018-04-23T17:46:17.980Z,17.60
2018-04-23T17:48:45.035Z,17.60
2018-04-23T17:51:11.369Z,17.60
2018-04-23T17:53:37.704Z,17.50
2018-04-23T17:56:04.087Z,17.50
2018-04-23T17:58:30.430Z,17.40
2018-04-23T18:00:56.766Z,17.30
2018-04-23T18:03:23.082Z,17.20
2018-04-23T18:05:50.196Z,17.40
2018-04-23T18:08:16.497Z,17.30
2018-04-23T18:10:43.605Z,17.40
2018-04-23T18:13:10.995Z,17.30
2018-04-23T18:15:38.081Z,17.30
2018-04-23T18:18:04.415Z,17.20
2018-04-23T18:20:30.853Z,17.20
2018-04-23T18:22:57.352Z,17.20
2018-04-23T18:25:25.476Z,17.40
2018-04-23T18:27:51.847Z,17.50
2018-04-23T18:30:18.943Z,17.30
2018-04-23T18:32:45.356Z,17.30
2018-04-23T18:35:11.686Z,17.20
2018-04-23T18:37:38.089Z,17.20
2018-04-23T18:40:05.197Z,17.10
2018-04-23T18:42:31.621Z,17.10
2018-04-23T18:44:57.952Z,17.10
2018-04-23T18:47:24.278Z,17.00
2018-04-23T18:49:50.739Z,17.10
2018-04-23T18:52:17.595Z,17.00
2018-04-23T18:54:44.688Z,16.90
2018-04-23T18:57:11.113Z,16.80
2018-04-23T18:59:37.528Z,16.80
2018-04-23T19:02:04.618Z,16.90
2018-04-23T19:04:31.026Z,16.80
2018-04-23T19:06:57.387Z,16.90
2018-04-23T19:09:23.786Z,16.80
2018-04-23T19:11:50.169Z,16.80
2018-04-23T19:14:16.589Z,16.80
2018-04-23T19:16:42.911Z,16.70
2018-04-23T19:19:09.256Z,16.60
2018-04-23T19:21:35.613Z,16.40
2018-04-23T19:24:01.950Z,16.30
2018-04-23T19:26:29.025Z,16.20
2018-04-23T19:28:55.379Z,16.20
2018-04-23T19:31:21.697Z,16.20
2018-04-23T19:33:48.145Z,16.20
2018-04-23T19:36:14.623Z,16.10
2018-04-23T19:38:40.971Z,16.00
2018-04-23T19:41:08.085Z,16.00
2018-04-23T19:43:34.485Z,16.00
2018-04-23T19:46:00.833Z,16.00
2018-04-23T19:48:27.290Z,16.10
2018-04-23T19:50:53.774Z,16.00
2018-04-23T19:53:20.119Z,16.00
2018-04-23T19:55:46.461Z,15.90
2018-04-23T19:58:12.821Z,16.00
2018-04-23T20:00:39.235Z,15.90
2018-04-23T20:03:06.726Z,15.80
2018-04-23T20:05:33.833Z,15.80
2018-04-23T20:08:00.458Z,15.80
2018-04-23T20:10:26.792Z,15.80
2018-04-23T20:12:53.252Z,15.70
2018-04-23T20:15:19.688Z,15.70
2018-04-23T20:17:46.863Z,15.70
2018-04-23T20:20:13.949Z,15.50
2018-04-23T20:22:40.295Z,15.50
2018-04-23T20:25:06.630Z,15.40
2018-04-23T20:27:32.992Z,15.20
2018-04-23T20:30:00.050Z,15.10
2018-04-23T20:32:28.190Z,15.10
2018-04-23T20:34:54.599Z,15.10
2018-04-23T20:37:21.070Z,15.00
2018-04-23T20:39:47.477Z,14.90
2018-04-23T20:42:13.808Z,14.80
2018-04-23T20:44:40.129Z,14.70
2018-04-23T20:47:06.568Z,14.80
2018-04-23T20:49:33.053Z,14.70
2018-04-23T20:52:00.138Z,14.50
2018-04-23T20:54:26.497Z,14.20
2018-04-23T20:56:52.964Z,14.40
2018-04-23T20:59:20.095Z,14.40
2018-04-23T21:01:46.446Z,14.40
2018-04-23T21:04:13.616Z,14.20
2018-04-23T21:06:39.941Z,14.10
2018-04-23T21:09:07.030Z,14.20
2018-04-23T21:11:33.356Z,14.20
2018-04-23T21:13:59.692Z,14.40
2018-04-23T21:16:26.022Z,14.30
2018-04-23T21:18:52.345Z,14.40
2018-04-23T21:21:18.660Z,14.40
2018-04-23T21:23:44.978Z,14.40
2018-04-23T21:26:11.332Z,14.50
2018-04-23T21:28:37.668Z,14.50
2018-04-23T21:31:04.029Z,14.50
2018-04-23T21:33:30.360Z,14.50
2018-04-23T21:35:56.688Z,14.50
2018-04-23T21:38:24.037Z,14.40
2018-04-23T21:40:50.367Z,14.40
2018-04-23T21:43:16.705Z,14.30
2018-04-23T21:45:43.036Z,14.20
2018-04-23T21:48:09.376Z,14.20
2018-04-23T21:50:35.703Z,14.10
2018-04-23T21:53:02.033Z,14.00
2018-04-23T21:55:28.347Z,14.10
2018-04-23T21:57:54.670Z,14.00
2018-04-23T22:00:22.017Z,13.80
2018-04-23T22:02:48.352Z,13.70
2018-04-23T22:05:14.723Z,13.60
2018-04-23T22:07:41.797Z,13.50
2018-04-23T22:10:08.150Z,13.40
2018-04-23T22:12:34.500Z,13.50
2018-04-23T22:15:00.837Z,13.40
2018-04-23T22:17:27.141Z,13.30
2018-04-23T22:19:53.451Z,13.30
2018-04-23T22:22:19.776Z,13.20
2018-04-23T22:24:46.846Z,13.10
2018-04-23T22:27:13.152Z,13.10
2018-04-23T22:29:40.213Z,13.10
2018-04-23T22:32:06.597Z,13.10
2018-04-23T22:34:32.902Z,13.10
2018-04-23T22:36:59.248Z,13.00
2018-04-23T22:39:25.573Z,13.00
2018-04-23T22:41:51.889Z,13.10
2018-04-23T22:44:18.219Z,13.00
2018-04-23T22:46:44.584Z,13.10
2018-04-23T22:49:10.905Z,13.10
2018-04-23T22:51:37.228Z,13.00
2018-04-23T22:54:03.569Z,13.00
2018-04-23T22:56:31.577Z,13.00
2018-04-23T22:58:57.973Z,12.90
2018-04-23T23:01:24.281Z,13.00
2018-04-23T23:03:50.626Z,13.00
2018-04-23T23:06:16.956Z,13.10
2018-04-23T23:08:43.301Z,13.00
2018-04-23T23:11:09.621Z,12.90
2018-04-23T23:13:36.938Z,12.90
2018-04-23T23:16:03.281Z,12.90
2018-04-23T23:18:29.629Z,13.30
2018-04-23T23:20:55.972Z,12.90
2018-04-23T23:23:22.292Z,12.90
2018-04-23T23:25:50.113Z,12.90
2018-04-23T23:28:16.438Z,12.90
2018-04-23T23:30:42.779Z,12.80
2018-04-23T23:33:09.109Z,12.80
2018-04-23T23:35:35.450Z,12.90
2018-04-23T23:38:01.782Z,12.90
2018-04-23T23:40:28.093Z,12.90
2018-04-23T23:42:54.406Z,13.00
2018-04-23T23:45:22.496Z,12.90
2018-04-23T23:47:48.818Z,12.90
2018-04-23T23:50:15.973Z,12.80
2018-04-23T23:52:42.283Z,12.80
2018-04-23T23:55:09.433Z,12.90
2018-04-23T23:57:36.557Z,12.90
